createdAt,value
2019-05-19T00:00:41.299Z,5.40
2019-05-19T00:03:31.798Z,5.00
2019-05-19T00:06:20.958Z,5.27
2019-05-19T00:09:11.806Z,5.40
2019-05-19T00:12:01.448Z,5.30
2019-05-19T00:14:51.094Z,5.40
2019-05-19T00:17:39.851Z,5.17
2019-05-19T00:20:30.591Z,5.20
2019-05-19T00:23:21.602Z,5.40
2019-05-19T00:26:17.537Z,4.90
2019-05-19T00:29:08.055Z,5.23
2019-05-19T00:31:56.851Z,4.63
2019-05-19T00:34:46.501Z,5.80
2019-05-19T00:37:35.667Z,5.70
2019-05-19T00:40:24.390Z,5.40
2019-05-19T00:43:14.640Z,5.47
2019-05-19T00:46:04.091Z,6.47
2019-05-19T00:48:53.823Z,6.50
2019-05-19T00:51:44.702Z,5.23
2019-05-19T00:54:34.938Z,5.73
2019-05-19T00:57:25.931Z,6.13
2019-05-19T01:00:16.138Z,5.70
2019-05-19T01:03:06.326Z,6.20
2019-05-19T01:05:56.433Z,5.50
2019-05-19T01:08:46.505Z,6.70
2019-05-19T01:11:36.140Z,6.50
2019-05-19T01:14:25.746Z,6.10
2019-05-19T01:17:15.140Z,10.30
2019-05-19T01:20:06.422Z,7.13
2019-05-19T01:23:04.805Z,6.17
2019-05-19T01:25:54.379Z,5.93
2019-05-19T01:28:44.139Z,7.90
2019-05-19T01:31:34.220Z,5.03
2019-05-19T01:34:23.566Z,5.60
2019-05-19T01:37:12.782Z,6.37
2019-05-19T01:40:02.393Z,5.67
2019-05-19T01:42:52.705Z,5.50
2019-05-19T01:45:41.380Z,6.20
2019-05-19T01:48:31.443Z,5.87
2019-05-19T01:51:20.712Z,5.90
2019-05-19T01:54:10.292Z,6.50
2019-05-19T01:57:00.516Z,6.43
2019-05-19T01:59:51.104Z,7.30
2019-05-19T02:02:40.595Z,6.67
2019-05-19T02:05:30.843Z,6.50
2019-05-19T02:08:21.334Z,5.90
2019-05-19T02:11:10.061Z,7.67
2019-05-19T02:13:58.754Z,6.87
2019-05-19T02:16:48.355Z,7.30
2019-05-19T02:19:39.123Z,7.40
2019-05-19T02:22:29.934Z,6.87
2019-05-19T02:25:20.969Z,6.03
2019-05-19T02:28:11.960Z,7.60
2019-05-19T02:31:01.215Z,6.60
2019-05-19T02:33:49.972Z,6.20
2019-05-19T02:36:40.495Z,7.33
2019-05-19T02:39:30.018Z,7.07
2019-05-19T02:42:21.280Z,6.70
2019-05-19T02:45:12.791Z,6.00
2019-05-19T02:48:03.650Z,6.30
2019-05-19T02:50:55.043Z,6.30
2019-05-19T02:53:46.028Z,6.27
2019-05-19T02:56:36.812Z,6.73
2019-05-19T02:59:27.465Z,6.80
2019-05-19T03:02:17.382Z,6.57
2019-05-19T03:05:07.503Z,6.87
2019-05-19T03:07:57.621Z,6.87
2019-05-19T03:10:47.133Z,6.17
2019-05-19T03:13:36.000Z,6.83
2019-05-19T03:16:25.802Z,6.37
2019-05-19T03:19:15.047Z,5.97
2019-05-19T03:22:05.828Z,6.43
2019-05-19T03:24:56.039Z,6.23
2019-05-19T03:27:46.196Z,6.17
2019-05-19T03:30:44.431Z,5.40
2019-05-19T03:33:34.548Z,6.70
2019-05-19T03:36:23.479Z,7.40
2019-05-19T03:39:13.163Z,6.60
2019-05-19T03:42:00.680Z,7.30
2019-05-19T03:44:50.815Z,6.87
2019-05-19T03:47:40.705Z,6.73
2019-05-19T03:50:30.439Z,6.93
2019-05-19T03:53:19.769Z,6.53
2019-05-19T03:56:10.783Z,6.90
2019-05-19T03:59:00.870Z,6.70
2019-05-19T04:01:51.580Z,6.73
2019-05-19T04:04:41.998Z,6.97
2019-05-19T04:07:31.976Z,6.80
2019-05-19T04:10:21.894Z,6.97
2019-05-19T04:13:12.041Z,5.70
2019-05-19T04:16:00.731Z,7.33
2019-05-19T04:18:49.943Z,7.23
2019-05-19T04:21:48.712Z,6.73
2019-05-19T04:24:33.658Z,7.57
2019-05-19T04:27:23.680Z,7.27
2019-05-19T04:30:13.072Z,6.77
2019-05-19T04:33:02.844Z,6.80
2019-05-19T04:35:51.803Z,7.63
2019-05-19T04:38:40.331Z,5.80
2019-05-19T04:41:30.091Z,6.50
2019-05-19T04:44:20.300Z,6.70
2019-05-19T04:47:10.107Z,7.30
2019-05-19T04:49:59.487Z,5.73
2019-05-19T04:52:48.613Z,6.90
2019-05-19T04:55:37.807Z,6.97
2019-05-19T04:58:27.599Z,7.43
2019-05-19T05:01:16.777Z,8.23
2019-05-19T05:04:07.784Z,6.80
2019-05-19T05:06:57.546Z,7.37
2019-05-19T05:09:46.321Z,8.13
2019-05-19T05:12:35.889Z,6.80
2019-05-19T05:15:26.106Z,7.10
2019-05-19T05:18:16.618Z,8.17
2019-05-19T05:21:08.182Z,8.17
2019-05-19T05:23:59.186Z,8.37
2019-05-19T05:26:50.331Z,9.37
2019-05-19T05:29:39.359Z,8.10
2019-05-19T05:32:28.898Z,9.10
2019-05-19T05:35:18.753Z,9.07
2019-05-19T05:38:08.217Z,9.30
2019-05-19T05:40:58.663Z,9.50
2019-05-19T05:43:48.753Z,9.40
2019-05-19T05:46:39.165Z,10.13
2019-05-19T05:49:28.723Z,9.47
2019-05-19T05:52:18.669Z,9.23
2019-05-19T05:55:08.427Z,10.20
2019-05-19T05:57:58.842Z,11.30
2019-05-19T06:00:48.475Z,13.47
2019-05-19T06:03:40.111Z,11.90
2019-05-19T06:06:29.678Z,11.23
2019-05-19T06:09:19.406Z,11.57
2019-05-19T06:12:09.186Z,11.07
2019-05-19T06:14:57.851Z,12.97
2019-05-19T06:17:47.854Z,12.70
2019-05-19T06:20:38.732Z,11.07
2019-05-19T06:23:28.530Z,11.47
2019-05-19T06:26:18.310Z,11.30
2019-05-19T06:29:12.576Z,11.50
2019-05-19T06:32:12.774Z,11.60
2019-05-19T06:35:04.709Z,14.13
2019-05-19T06:37:54.111Z,11.90
2019-05-19T06:40:43.467Z,11.87
2019-05-19T06:43:33.522Z,11.90
2019-05-19T06:46:24.880Z,13.47
2019-05-19T06:49:15.591Z,12.90
2019-05-19T06:52:05.027Z,14.40
2019-05-19T06:54:55.670Z,11.37
2019-05-19T06:57:44.838Z,11.90
2019-05-19T07:03:38.198Z,11.10
2019-05-19T07:06:28.227Z,10.93
2019-05-19T07:09:18.030Z,10.40
2019-05-19T07:12:07.218Z,11.07
2019-05-19T07:14:55.878Z,10.43
2019-05-19T07:17:45.310Z,10.90
2019-05-19T07:20:34.838Z,10.97
2019-05-19T07:23:30.991Z,11.30
2019-05-19T07:26:21.100Z,11.43
2019-05-19T07:29:11.289Z,9.80
2019-05-19T07:32:00.291Z,10.10
2019-05-19T07:34:49.736Z,10.33
2019-05-19T07:37:38.991Z,10.87
2019-05-19T07:40:28.629Z,10.30
2019-05-19T07:43:19.816Z,9.57
2019-05-19T07:46:09.598Z,10.50
2019-05-19T07:48:59.346Z,11.30
2019-05-19T07:51:49.113Z,12.07
2019-05-19T07:54:38.512Z,12.43
2019-05-19T07:57:29.305Z,11.10
2019-05-19T08:00:18.966Z,11.40
2019-05-19T08:03:12.151Z,11.17
2019-05-19T08:06:02.775Z,11.43
2019-05-19T08:08:53.517Z,11.97
2019-05-19T08:11:42.862Z,12.23
2019-05-19T08:14:31.768Z,11.80
2019-05-19T08:17:21.548Z,11.13
2019-05-19T08:20:11.879Z,11.43
2019-05-19T08:23:02.936Z,10.87
2019-05-19T08:25:53.248Z,10.80
2019-05-19T08:28:44.667Z,9.20
2019-05-19T08:31:34.866Z,9.43
2019-05-19T08:34:24.527Z,10.87
2019-05-19T08:37:14.634Z,9.30
2019-05-19T08:40:03.771Z,7.90
2019-05-19T08:42:54.345Z,8.27
2019-05-19T08:45:43.850Z,7.03
2019-05-19T08:48:33.776Z,11.03
2019-05-19T08:51:22.974Z,10.03
2019-05-19T08:54:15.092Z,9.77
2019-05-19T08:57:02.483Z,9.80
2019-05-19T08:59:52.401Z,9.07
2019-05-19T09:02:43.028Z,8.10
2019-05-19T09:05:33.877Z,8.80
2019-05-19T09:08:22.783Z,6.83
2019-05-19T09:11:12.342Z,7.43
2019-05-19T09:14:01.540Z,7.80
2019-05-19T09:16:51.506Z,6.97
2019-05-19T09:19:41.282Z,6.17
2019-05-19T09:22:31.537Z,6.30
2019-05-19T09:25:21.780Z,9.10
2019-05-19T09:28:11.942Z,8.50
2019-05-19T09:31:01.456Z,7.37
2019-05-19T09:33:57.282Z,8.00
2019-05-19T09:36:47.162Z,7.40
2019-05-19T09:39:35.791Z,7.43
2019-05-19T09:42:25.485Z,7.13
2019-05-19T09:45:16.654Z,7.60
2019-05-19T09:48:07.574Z,7.80
2019-05-19T09:50:56.757Z,7.17
2019-05-19T09:53:46.554Z,6.70
2019-05-19T09:56:35.364Z,7.47
2019-05-19T09:59:24.728Z,7.10
2019-05-19T10:02:15.523Z,6.20
2019-05-19T10:05:06.677Z,7.43
2019-05-19T10:07:56.958Z,8.23
2019-05-19T10:11:30.873Z,7.93
2019-05-19T10:14:19.723Z,7.57
2019-05-19T10:17:10.106Z,7.60
2019-05-19T10:19:59.625Z,9.17
2019-05-19T10:22:50.834Z,6.50
2019-05-19T10:25:40.475Z,7.80
2019-05-19T10:28:32.455Z,7.30
2019-05-19T10:31:21.339Z,8.33
2019-05-19T10:34:11.187Z,8.43
2019-05-19T10:37:00.595Z,8.23
2019-05-19T10:39:51.729Z,9.10
2019-05-19T10:42:42.376Z,9.23
2019-05-19T10:45:31.154Z,8.20
2019-05-19T10:48:21.370Z,7.50
2019-05-19T10:51:10.670Z,7.17
2019-05-19T10:54:00.447Z,7.10
2019-05-19T10:56:49.381Z,5.70
2019-05-19T10:59:39.010Z,6.80
2019-05-19T11:02:30.034Z,5.60
2019-05-19T11:05:25.346Z,7.00
2019-05-19T11:08:15.436Z,8.80
2019-05-19T11:11:05.734Z,6.53
2019-05-19T11:13:55.503Z,7.20
2019-05-19T11:16:44.642Z,7.30
2019-05-19T11:19:33.703Z,7.83
2019-05-19T11:22:25.060Z,8.10
2019-05-19T11:25:16.685Z,6.33
2019-05-19T11:28:07.482Z,7.63
2019-05-19T11:30:57.467Z,8.07
2019-05-19T11:33:47.365Z,6.93
2019-05-19T11:36:36.734Z,7.50
2019-05-19T11:39:26.327Z,8.50
2019-05-19T11:42:16.387Z,7.20
2019-05-19T11:45:06.726Z,8.50
2019-05-19T11:47:57.591Z,8.60
2019-05-19T11:50:46.461Z,7.50
2019-05-19T11:53:35.301Z,7.30
2019-05-19T11:56:24.685Z,5.93
2019-05-19T11:59:13.764Z,7.03
2019-05-19T12:02:04.264Z,7.47
2019-05-19T12:04:55.469Z,8.53
2019-05-19T12:07:44.556Z,11.13
2019-05-19T12:10:34.115Z,11.30
2019-05-19T12:13:23.823Z,7.90
2019-05-19T12:16:14.835Z,6.30
2019-05-19T12:19:03.520Z,5.53
2019-05-19T12:21:54.357Z,6.50
2019-05-19T12:24:43.453Z,6.90
2019-05-19T12:27:33.399Z,6.87
2019-05-19T12:30:22.483Z,6.90
2019-05-19T12:33:11.955Z,5.40
2019-05-19T12:36:01.630Z,5.63
2019-05-19T12:38:50.492Z,6.00
2019-05-19T12:41:39.862Z,6.20
2019-05-19T12:44:30.178Z,6.40
2019-05-19T12:47:20.351Z,6.10
2019-05-19T12:50:11.902Z,5.27
2019-05-19T12:53:01.039Z,5.30
2019-05-19T12:55:50.750Z,5.50
2019-05-19T12:58:40.363Z,5.40
2019-05-19T13:01:31.506Z,6.00
2019-05-19T13:04:21.697Z,5.00
2019-05-19T13:07:11.480Z,5.50
2019-05-19T13:10:00.837Z,4.97
2019-05-19T13:12:51.006Z,5.10
2019-05-19T13:15:40.135Z,4.90
2019-05-19T13:18:29.762Z,5.70
2019-05-19T13:21:19.767Z,5.63
2019-05-19T13:24:09.619Z,6.03
2019-05-19T13:27:00.263Z,5.50
2019-05-19T13:29:49.156Z,5.10
2019-05-19T13:32:38.753Z,5.50
2019-05-19T13:35:28.109Z,5.60
2019-05-19T13:38:17.569Z,6.10
2019-05-19T13:41:07.250Z,5.60
2019-05-19T13:43:59.643Z,5.03
2019-05-19T13:46:47.910Z,5.43
2019-05-19T13:49:38.992Z,5.13
2019-05-19T13:52:29.723Z,6.30
2019-05-19T13:55:19.764Z,5.50
2019-05-19T13:58:09.511Z,5.83
2019-05-19T14:00:59.852Z,5.33
2019-05-19T14:03:52.255Z,5.93
2019-05-19T14:06:42.463Z,5.40
2019-05-19T14:09:31.461Z,5.30
2019-05-19T14:12:20.471Z,5.57
2019-05-19T14:15:10.798Z,5.67
2019-05-19T14:17:59.783Z,5.53
2019-05-19T14:20:49.770Z,6.00
2019-05-19T14:23:40.517Z,5.50
2019-05-19T14:26:29.678Z,5.30
2019-05-19T14:29:26.512Z,4.80
2019-05-19T14:32:15.113Z,5.83
2019-05-19T14:35:04.504Z,5.73
2019-05-19T14:37:54.426Z,5.13
2019-05-19T14:40:45.146Z,5.23
2019-05-19T14:43:35.134Z,5.60
2019-05-19T14:46:24.543Z,5.57
2019-05-19T14:49:27.603Z,5.53
2019-05-19T14:52:17.134Z,5.17
2019-05-19T14:55:07.104Z,5.33
2019-05-19T14:57:57.926Z,4.83
2019-05-19T15:00:53.071Z,5.33
2019-05-19T15:03:43.502Z,4.63
2019-05-19T15:06:34.376Z,5.30
2019-05-19T15:09:26.255Z,4.60
2019-05-19T15:12:22.095Z,4.90
2019-05-19T15:15:11.747Z,5.60
2019-05-19T15:18:01.064Z,5.27
2019-05-19T15:20:53.084Z,4.90
2019-05-19T15:23:43.313Z,4.50
2019-05-19T15:26:40.078Z,5.07
2019-05-19T15:29:30.738Z,5.10
2019-05-19T15:32:20.238Z,4.97
2019-05-19T15:35:10.195Z,4.20
2019-05-19T15:37:59.487Z,5.30
2019-05-19T15:40:48.236Z,4.87
2019-05-19T15:43:38.209Z,4.87
2019-05-19T15:46:27.696Z,5.87
2019-05-19T15:49:16.950Z,6.30
2019-05-19T15:52:07.589Z,5.00
2019-05-19T15:54:57.437Z,6.90
2019-05-19T15:57:46.499Z,5.43
2019-05-19T16:00:36.560Z,6.10
2019-05-19T16:03:32.591Z,5.20
2019-05-19T16:06:21.951Z,5.90
2019-05-19T16:09:11.363Z,5.37
2019-05-19T16:12:01.988Z,5.50
2019-05-19T16:14:51.407Z,5.93
2019-05-19T16:21:46.379Z,6.40
2019-05-19T16:24:35.592Z,5.70
2019-05-19T16:27:26.036Z,5.93
2019-05-19T16:30:15.474Z,6.13
2019-05-19T16:33:05.510Z,4.60
2019-05-19T16:35:54.961Z,4.87
2019-05-19T16:38:43.513Z,6.47
2019-05-19T16:41:32.035Z,4.60
2019-05-19T16:44:21.576Z,5.37
2019-05-19T16:47:10.539Z,4.67
2019-05-19T16:49:59.650Z,6.00
2019-05-19T16:52:49.059Z,4.33
2019-05-19T16:55:38.096Z,3.80
2019-05-19T16:58:27.617Z,4.80
2019-05-19T17:01:30.967Z,4.80
2019-05-19T17:04:24.275Z,4.97
2019-05-19T17:07:14.748Z,4.27
2019-05-19T17:10:09.376Z,4.07
2019-05-19T17:13:01.394Z,4.10
2019-05-19T17:15:58.998Z,4.30
2019-05-19T17:18:51.298Z,4.60
2019-05-19T17:22:10.963Z,4.30
2019-05-19T17:25:24.915Z,3.30
2019-05-19T17:28:24.898Z,4.20
2019-05-19T17:31:43.479Z,4.03
2019-05-19T18:13:36.180Z,6.00
2019-05-19T18:16:34.683Z,5.83
2019-05-19T18:19:23.986Z,5.23
2019-05-19T18:22:13.395Z,5.07
2019-05-19T18:25:12.500Z,5.70
2019-05-19T18:31:08.948Z,6.53
2019-05-19T18:33:58.261Z,6.53
2019-05-19T18:36:47.199Z,5.20
2019-05-19T18:39:36.368Z,7.50
2019-05-19T18:42:27.192Z,9.17
2019-05-19T18:45:16.550Z,8.03
2019-05-19T18:48:04.754Z,8.23
2019-05-19T18:50:53.526Z,8.13
2019-05-19T18:53:43.416Z,8.23
2019-05-19T18:56:31.739Z,8.23
2019-05-19T18:59:21.107Z,8.20
2019-05-19T19:02:11.491Z,7.10
2019-05-19T19:08:07.567Z,7.63
2019-05-19T19:11:17.691Z,7.17
2019-05-19T19:14:27.526Z,7.40
2019-05-19T19:17:48.319Z,7.27
2019-05-19T19:20:40.119Z,6.90
2019-05-19T19:23:28.959Z,7.10
2019-05-19T19:29:23.532Z,8.43
2019-05-19T19:32:12.413Z,8.13
2019-05-19T19:35:01.815Z,7.53
2019-05-19T19:37:54.147Z,6.83
2019-05-19T19:40:42.035Z,8.37
2019-05-19T19:43:31.798Z,7.03
2019-05-19T19:46:20.851Z,7.47
2019-05-19T19:49:09.251Z,8.00
2019-05-19T19:51:57.873Z,7.63
2019-05-19T19:55:05.335Z,6.50
2019-05-19T19:57:54.328Z,8.00
2019-05-19T20:00:45.698Z,5.83
2019-05-19T20:03:39.732Z,5.70
2019-05-19T20:06:26.472Z,6.07
2019-05-19T20:09:14.455Z,5.80
2019-05-19T20:12:03.942Z,6.47
2019-05-19T20:14:53.668Z,7.13
2019-05-19T20:17:42.286Z,6.87
2019-05-19T20:20:30.231Z,6.70
2019-05-19T20:23:18.658Z,5.20
2019-05-19T20:26:08.435Z,6.53
2019-05-19T20:28:58.476Z,6.27
2019-05-19T20:31:48.838Z,6.23
2019-05-19T20:34:37.688Z,10.30
2019-05-19T20:37:26.027Z,6.53
2019-05-19T20:40:14.973Z,6.03
2019-05-19T20:43:03.842Z,6.30
2019-05-19T20:45:52.362Z,7.30
2019-05-19T20:48:41.951Z,7.73
2019-05-19T20:51:33.838Z,9.17
2019-05-19T20:54:23.356Z,7.60
2019-05-19T20:57:11.734Z,7.13
2019-05-19T20:59:59.801Z,7.00
2019-05-19T21:02:46.727Z,7.70
2019-05-19T21:05:37.819Z,7.37
2019-05-19T21:08:26.612Z,7.33
2019-05-19T21:11:17.125Z,7.43
2019-05-19T21:14:05.866Z,8.00
2019-05-19T21:16:54.000Z,7.50
2019-05-19T21:19:42.615Z,8.07
2019-05-19T21:22:30.811Z,8.30
2019-05-19T21:25:19.119Z,8.20
2019-05-19T21:28:17.665Z,7.90
2019-05-19T21:31:06.986Z,7.60
2019-05-19T21:33:58.142Z,8.40
2019-05-19T21:36:48.263Z,10.10
2019-05-19T21:39:39.170Z,8.50
2019-05-19T21:42:56.166Z,6.80
2019-05-19T21:45:52.493Z,7.57
2019-05-19T21:48:45.407Z,9.70
2019-05-19T21:51:37.011Z,9.77
2019-05-19T21:54:29.537Z,8.10
2019-05-19T21:57:19.767Z,8.13
2019-05-19T22:00:22.024Z,8.70
2019-05-19T22:03:17.756Z,8.50
2019-05-19T22:06:11.894Z,8.63
2019-05-19T22:09:05.729Z,8.43
2019-05-19T22:11:57.451Z,8.60
2019-05-19T22:14:46.100Z,8.20
2019-05-19T22:17:34.862Z,8.33
2019-05-19T22:20:23.296Z,7.70
2019-05-19T22:23:13.152Z,8.20
2019-05-19T22:26:04.010Z,6.97
2019-05-19T22:28:53.285Z,7.17
2019-05-19T22:31:48.612Z,8.50
2019-05-19T22:34:37.080Z,7.60
2019-05-19T22:37:30.870Z,7.10
2019-05-19T22:40:21.680Z,6.73
2019-05-19T22:43:10.211Z,8.00
2019-05-19T22:45:59.287Z,7.90
2019-05-19T22:48:49.427Z,7.80
2019-05-19T22:51:38.647Z,8.07
2019-05-19T22:57:21.855Z,8.90
2019-05-19T23:00:12.141Z,7.87
2019-05-19T23:03:03.379Z,7.57
2019-05-19T23:05:53.031Z,7.37
2019-05-19T23:08:43.244Z,7.23
2019-05-19T23:11:32.296Z,8.37
2019-05-19T23:14:21.404Z,7.10
2019-05-19T23:17:12.370Z,8.50
2019-05-19T23:23:51.907Z,9.37
2019-05-19T23:36:52.447Z,9.60
2019-05-19T23:39:42.243Z,9.17
2019-05-19T23:42:30.948Z,10.07
2019-05-19T23:45:21.062Z,8.57
2019-05-19T23:48:09.994Z,10.03
2019-05-19T23:51:28.644Z,9.37
2019-05-19T23:54:18.680Z,8.83
2019-05-19T23:57:08.251Z,8.77
